sensor_id;sensor_type;location;lat;lon;timestamp;P1;durP1;ratioP1;P2;durP2;ratioP2
6372;SDS011;3219;51.362;7.074;2023-04-01T00:01:03;4.43;;;1.55;;
6372;SDS011;3219;51.362;7.074;2023-04-01T00:03:31;4.80;;;2.05;;
6372;SDS011;3219;51.362;7.074;2023-04-01T00:05:58;5.97;;;1.83;;
6372;SDS011;3219;51.362;7.074;2023-04-01T00:08:26;5.90;;;1.70;;
6372;SDS011;3219;51.362;7.074;2023-04-01T00:10:54;4.45;;;1.90;;
6372;SDS011;3219;51.362;7.074;2023-04-01T00:13:23;4.78;;;1.48;;
6372;SDS011;3219;51.362;7.074;2023-04-01T00:15:51;7.72;;;2.03;;
6372;SDS011;3219;51.362;7.074;2023-04-01T00:18:18;5.70;;;1.92;;
6372;SDS011;3219;51.362;7.074;2023-04-01T00:20:46;6.20;;;1.92;;
6372;SDS011;3219;51.362;7.074;2023-04-01T00:23:13;3.67;;;1.90;;
6372;SDS011;3219;51.362;7.074;2023-04-01T00:25:40;4.80;;;1.90;;
6372;SDS011;3219;51.362;7.074;2023-04-01T00:28:08;4.78;;;1.92;;
6372;SDS011;3219;51.362;7.074;2023-04-01T00:30:36;3.90;;;1.80;;
6372;SDS011;3219;51.362;7.074;2023-04-01T00:33:04;5.40;;;2.30;;
6372;SDS011;3219;51.362;7.074;2023-04-01T00:35:30;4.53;;;1.75;;
6372;SDS011;3219;51.362;7.074;2023-04-01T00:37:58;5.28;;;1.80;;
6372;SDS011;3219;51.362;7.074;2023-04-01T00:40:26;5.47;;;2.53;;
6372;SDS011;3219;51.362;7.074;2023-04-01T00:42:55;5.78;;;2.15;;
6372;SDS011;3219;51.362;7.074;2023-04-01T00:45:26;4.65;;;1.70;;
6372;SDS011;3219;51.362;7.074;2023-04-01T00:47:58;6.05;;;2.22;;
6372;SDS011;3219;51.362;7.074;2023-04-01T00:50:29;3.03;;;1.85;;
6372;SDS011;3219;51.362;7.074;2023-04-01T00:52:58;2.45;;;1.63;;
6372;SDS011;3219;51.362;7.074;2023-04-01T00:55:26;5.03;;;1.70;;
6372;SDS011;3219;51.362;7.074;2023-04-01T00:57:55;1.85;;;1.33;;
6372;SDS011;3219;51.362;7.074;2023-04-01T01:00:24;2.78;;;1.77;;
6372;SDS011;3219;51.362;7.074;2023-04-01T01:02:51;3.33;;;1.30;;
6372;SDS011;3219;51.362;7.074;2023-04-01T01:05:20;4.22;;;1.80;;
6372;SDS011;3219;51.362;7.074;2023-04-01T01:07:57;5.85;;;2.20;;
6372;SDS011;3219;51.362;7.074;2023-04-01T01:10:32;5.30;;;2.15;;
6372;SDS011;3219;51.362;7.074;2023-04-01T01:13:04;3.20;;;1.88;;
6372;SDS011;3219;51.362;7.074;2023-04-01T01:15:37;2.97;;;1.67;;
6372;SDS011;3219;51.362;7.074;2023-04-01T01:18:12;3.38;;;1.63;;
6372;SDS011;3219;51.362;7.074;2023-04-01T01:23:59;2.92;;;1.63;;
6372;SDS011;3219;51.362;7.074;2023-04-01T01:26:52;5.68;;;1.92;;
6372;SDS011;3219;51.362;7.074;2023-04-01T01:32:22;2.97;;;1.55;;
6372;SDS011;3219;51.362;7.074;2023-04-01T01:35:10;3.90;;;1.33;;
6372;SDS011;3219;51.362;7.074;2023-04-01T01:37:45;5.18;;;1.85;;
6372;SDS011;3219;51.362;7.074;2023-04-01T01:40:13;3.83;;;1.52;;
6372;SDS011;3219;51.362;7.074;2023-04-01T01:42:42;3.53;;;1.60;;
6372;SDS011;3219;51.362;7.074;2023-04-01T01:45:12;2.33;;;1.45;;
6372;SDS011;3219;51.362;7.074;2023-04-01T01:47:43;3.47;;;1.50;;
6372;SDS011;3219;51.362;7.074;2023-04-01T01:50:12;3.45;;;1.60;;
6372;SDS011;3219;51.362;7.074;2023-04-01T01:52:41;3.67;;;1.60;;
6372;SDS011;3219;51.362;7.074;2023-04-01T01:55:22;2.95;;;1.20;;
6372;SDS011;3219;51.362;7.074;2023-04-01T01:57:51;4.43;;;1.58;;
6372;SDS011;3219;51.362;7.074;2023-04-01T02:00:19;3.22;;;1.58;;
6372;SDS011;3219;51.362;7.074;2023-04-01T02:02:47;4.88;;;1.02;;
6372;SDS011;3219;51.362;7.074;2023-04-01T02:05:17;2.42;;;1.20;;
6372;SDS011;3219;51.362;7.074;2023-04-01T02:10:16;4.75;;;1.33;;
6372;SDS011;3219;51.362;7.074;2023-04-01T02:12:45;1.90;;;1.20;;
6372;SDS011;3219;51.362;7.074;2023-04-01T02:15:14;3.30;;;1.75;;
6372;SDS011;3219;51.362;7.074;2023-04-01T02:17:42;3.53;;;1.70;;
6372;SDS011;3219;51.362;7.074;2023-04-01T02:20:13;5.13;;;1.70;;
6372;SDS011;3219;51.362;7.074;2023-04-01T02:22:43;5.93;;;1.65;;
6372;SDS011;3219;51.362;7.074;2023-04-01T02:25:15;2.95;;;1.42;;
6372;SDS011;3219;51.362;7.074;2023-04-01T02:27:47;3.95;;;1.20;;
6372;SDS011;3219;51.362;7.074;2023-04-01T02:30:14;4.07;;;1.60;;
6372;SDS011;3219;51.362;7.074;2023-04-01T02:32:43;2.80;;;1.52;;
6372;SDS011;3219;51.362;7.074;2023-04-01T02:35:12;3.00;;;1.60;;
6372;SDS011;3219;51.362;7.074;2023-04-01T02:37:43;4.57;;;1.55;;
6372;SDS011;3219;51.362;7.074;2023-04-01T02:40:14;4.55;;;1.50;;
6372;SDS011;3219;51.362;7.074;2023-04-01T02:42:41;4.85;;;1.58;;
6372;SDS011;3219;51.362;7.074;2023-04-01T02:45:09;4.35;;;1.65;;
6372;SDS011;3219;51.362;7.074;2023-04-01T02:47:36;3.13;;;1.42;;
6372;SDS011;3219;51.362;7.074;2023-04-01T02:50:04;3.35;;;1.60;;
6372;SDS011;3219;51.362;7.074;2023-04-01T02:52:32;3.78;;;1.85;;
6372;SDS011;3219;51.362;7.074;2023-04-01T02:55:00;2.33;;;1.50;;
6372;SDS011;3219;51.362;7.074;2023-04-01T02:57:27;2.17;;;1.30;;
6372;SDS011;3219;51.362;7.074;2023-04-01T02:59:54;2.70;;;1.27;;
6372;SDS011;3219;51.362;7.074;2023-04-01T03:02:20;3.38;;;1.38;;
6372;SDS011;3219;51.362;7.074;2023-04-01T03:04:47;3.13;;;1.45;;
6372;SDS011;3219;51.362;7.074;2023-04-01T03:07:14;2.22;;;1.20;;
6372;SDS011;3219;51.362;7.074;2023-04-01T03:09:41;4.35;;;1.10;;
6372;SDS011;3219;51.362;7.074;2023-04-01T03:12:09;2.10;;;1.45;;
6372;SDS011;3219;51.362;7.074;2023-04-01T03:14:36;2.78;;;1.00;;
6372;SDS011;3219;51.362;7.074;2023-04-01T03:17:03;1.25;;;0.90;;
6372;SDS011;3219;51.362;7.074;2023-04-01T03:19:30;4.68;;;1.33;;
6372;SDS011;3219;51.362;7.074;2023-04-01T03:21:57;2.65;;;0.82;;
6372;SDS011;3219;51.362;7.074;2023-04-01T03:24:24;1.45;;;0.95;;
6372;SDS011;3219;51.362;7.074;2023-04-01T03:26:50;1.90;;;1.00;;
6372;SDS011;3219;51.362;7.074;2023-04-01T03:29:18;5.55;;;1.58;;
6372;SDS011;3219;51.362;7.074;2023-04-01T03:31:45;1.50;;;1.00;;
6372;SDS011;3219;51.362;7.074;2023-04-01T03:34:12;1.83;;;1.20;;
6372;SDS011;3219;51.362;7.074;2023-04-01T03:36:39;4.05;;;1.15;;
6372;SDS011;3219;51.362;7.074;2023-04-01T03:39:06;4.05;;;1.17;;
6372;SDS011;3219;51.362;7.074;2023-04-01T03:41:34;1.27;;;1.00;;
6372;SDS011;3219;51.362;7.074;2023-04-01T03:44:02;2.58;;;1.10;;
6372;SDS011;3219;51.362;7.074;2023-04-01T03:46:30;1.88;;;0.90;;
6372;SDS011;3219;51.362;7.074;2023-04-01T03:48:56;3.45;;;1.25;;
6372;SDS011;3219;51.362;7.074;2023-04-01T03:51:23;4.03;;;1.00;;
6372;SDS011;3219;51.362;7.074;2023-04-01T03:53:50;4.03;;;1.05;;
6372;SDS011;3219;51.362;7.074;2023-04-01T03:56:17;2.45;;;0.90;;
6372;SDS011;3219;51.362;7.074;2023-04-01T03:58:44;1.58;;;0.80;;
6372;SDS011;3219;51.362;7.074;2023-04-01T04:01:15;3.42;;;0.90;;
6372;SDS011;3219;51.362;7.074;2023-04-01T04:03:44;1.58;;;0.90;;
6372;SDS011;3219;51.362;7.074;2023-04-01T04:06:12;2.15;;;1.05;;
6372;SDS011;3219;51.362;7.074;2023-04-01T04:08:39;2.10;;;1.10;;
6372;SDS011;3219;51.362;7.074;2023-04-01T04:11:06;1.55;;;0.90;;
6372;SDS011;3219;51.362;7.074;2023-04-01T04:13:33;2.25;;;1.20;;
6372;SDS011;3219;51.362;7.074;2023-04-01T04:16:00;1.80;;;1.23;;
6372;SDS011;3219;51.362;7.074;2023-04-01T04:18:27;2.08;;;1.02;;
6372;SDS011;3219;51.362;7.074;2023-04-01T04:20:56;1.60;;;1.25;;
6372;SDS011;3219;51.362;7.074;2023-04-01T04:23:22;1.98;;;1.10;;
6372;SDS011;3219;51.362;7.074;2023-04-01T04:25:53;2.13;;;1.20;;
6372;SDS011;3219;51.362;7.074;2023-04-01T04:28:21;2.92;;;1.10;;
6372;SDS011;3219;51.362;7.074;2023-04-01T04:30:48;2.38;;;0.80;;
6372;SDS011;3219;51.362;7.074;2023-04-01T04:33:15;2.25;;;1.10;;
6372;SDS011;3219;51.362;7.074;2023-04-01T04:35:42;1.70;;;0.98;;
6372;SDS011;3219;51.362;7.074;2023-04-01T04:38:10;1.33;;;1.02;;
6372;SDS011;3219;51.362;7.074;2023-04-01T04:40:37;1.10;;;1.00;;
6372;SDS011;3219;51.362;7.074;2023-04-01T04:43:04;1.17;;;1.02;;
6372;SDS011;3219;51.362;7.074;2023-04-01T04:45:31;1.75;;;1.25;;
6372;SDS011;3219;51.362;7.074;2023-04-01T04:47:58;1.13;;;0.95;;
6372;SDS011;3219;51.362;7.074;2023-04-01T04:50:25;2.95;;;1.00;;
6372;SDS011;3219;51.362;7.074;2023-04-01T04:52:52;2.17;;;1.30;;
6372;SDS011;3219;51.362;7.074;2023-04-01T04:55:20;1.98;;;1.20;;
6372;SDS011;3219;51.362;7.074;2023-04-01T04:57:47;1.63;;;1.30;;
6372;SDS011;3219;51.362;7.074;2023-04-01T05:00:14;2.50;;;0.98;;
6372;SDS011;3219;51.362;7.074;2023-04-01T05:02:41;2.05;;;1.38;;
6372;SDS011;3219;51.362;7.074;2023-04-01T05:05:08;1.77;;;1.27;;
6372;SDS011;3219;51.362;7.074;2023-04-01T05:07:35;1.92;;;1.45;;
6372;SDS011;3219;51.362;7.074;2023-04-01T05:10:02;3.03;;;1.48;;
6372;SDS011;3219;51.362;7.074;2023-04-01T05:12:31;1.70;;;1.60;;
6372;SDS011;3219;51.362;7.074;2023-04-01T05:15:01;2.57;;;1.50;;
6372;SDS011;3219;51.362;7.074;2023-04-01T05:17:29;1.83;;;1.30;;
6372;SDS011;3219;51.362;7.074;2023-04-01T05:19:55;2.47;;;1.67;;
6372;SDS011;3219;51.362;7.074;2023-04-01T05:22:22;2.25;;;1.50;;
6372;SDS011;3219;51.362;7.074;2023-04-01T05:24:49;1.92;;;1.73;;
6372;SDS011;3219;51.362;7.074;2023-04-01T05:27:16;1.48;;;1.38;;
6372;SDS011;3219;51.362;7.074;2023-04-01T05:29:44;1.58;;;1.48;;
6372;SDS011;3219;51.362;7.074;2023-04-01T05:32:11;2.58;;;1.92;;
6372;SDS011;3219;51.362;7.074;2023-04-01T05:34:38;1.83;;;1.60;;
6372;SDS011;3219;51.362;7.074;2023-04-01T05:37:05;1.98;;;1.65;;
6372;SDS011;3219;51.362;7.074;2023-04-01T05:39:35;1.85;;;1.70;;
6372;SDS011;3219;51.362;7.074;2023-04-01T05:42:02;2.33;;;1.80;;
6372;SDS011;3219;51.362;7.074;2023-04-01T05:44:31;1.52;;;1.27;;
6372;SDS011;3219;51.362;7.074;2023-04-01T05:46:59;2.45;;;1.40;;
6372;SDS011;3219;51.362;7.074;2023-04-01T05:49:26;2.15;;;1.80;;
6372;SDS011;3219;51.362;7.074;2023-04-01T05:51:53;1.65;;;1.55;;
6372;SDS011;3219;51.362;7.074;2023-04-01T05:54:20;1.38;;;1.27;;
6372;SDS011;3219;51.362;7.074;2023-04-01T05:56:47;1.83;;;1.30;;
6372;SDS011;3219;51.362;7.074;2023-04-01T05:59:14;2.47;;;1.70;;
6372;SDS011;3219;51.362;7.074;2023-04-01T06:01:40;2.00;;;1.80;;
6372;SDS011;3219;51.362;7.074;2023-04-01T06:04:10;2.42;;;1.90;;
6372;SDS011;3219;51.362;7.074;2023-04-01T06:06:40;1.98;;;1.67;;
6372;SDS011;3219;51.362;7.074;2023-04-01T06:09:10;2.42;;;1.60;;
6372;SDS011;3219;51.362;7.074;2023-04-01T06:11:44;3.75;;;1.88;;
6372;SDS011;3219;51.362;7.074;2023-04-01T06:14:23;2.17;;;1.98;;
6372;SDS011;3219;51.362;7.074;2023-04-01T06:17:13;2.00;;;1.80;;
6372;SDS011;3219;51.362;7.074;2023-04-01T06:19:53;2.60;;;1.70;;
6372;SDS011;3219;51.362;7.074;2023-04-01T06:22:39;2.42;;;1.67;;
6372;SDS011;3219;51.362;7.074;2023-04-01T06:25:39;2.03;;;1.80;;
6372;SDS011;3219;51.362;7.074;2023-04-01T06:28:35;2.40;;;2.10;;
6372;SDS011;3219;51.362;7.074;2023-04-01T06:31:20;2.50;;;1.88;;
6372;SDS011;3219;51.362;7.074;2023-04-01T06:34:05;2.97;;;2.30;;
6372;SDS011;3219;51.362;7.074;2023-04-01T06:36:51;2.85;;;2.28;;
6372;SDS011;3219;51.362;7.074;2023-04-01T06:39:35;4.32;;;2.20;;
6372;SDS011;3219;51.362;7.074;2023-04-01T06:42:17;2.90;;;2.58;;
6372;SDS011;3219;51.362;7.074;2023-04-01T06:44:56;2.28;;;2.08;;
6372;SDS011;3219;51.362;7.074;2023-04-01T06:47:36;4.18;;;2.55;;
6372;SDS011;3219;51.362;7.074;2023-04-01T06:50:15;3.45;;;2.65;;
6372;SDS011;3219;51.362;7.074;2023-04-01T06:52:50;3.88;;;2.53;;
6372;SDS011;3219;51.362;7.074;2023-04-01T06:55:26;3.03;;;2.28;;
6372;SDS011;3219;51.362;7.074;2023-04-01T06:58:00;3.90;;;2.72;;
6372;SDS011;3219;51.362;7.074;2023-04-01T07:00:31;2.90;;;2.70;;
6372;SDS011;3219;51.362;7.074;2023-04-01T07:03:10;2.65;;;2.45;;
6372;SDS011;3219;51.362;7.074;2023-04-01T07:05:45;2.70;;;2.50;;
6372;SDS011;3219;51.362;7.074;2023-04-01T07:08:14;2.00;;;1.90;;
6372;SDS011;3219;51.362;7.074;2023-04-01T07:10:45;2.63;;;2.40;;
6372;SDS011;3219;51.362;7.074;2023-04-01T07:13:18;2.92;;;2.50;;
6372;SDS011;3219;51.362;7.074;2023-04-01T07:15:54;3.58;;;2.28;;
6372;SDS011;3219;51.362;7.074;2023-04-01T07:18:30;2.67;;;2.47;;
6372;SDS011;3219;51.362;7.074;2023-04-01T07:21:01;2.05;;;1.83;;
6372;SDS011;3219;51.362;7.074;2023-04-01T07:23:31;2.05;;;1.80;;
6372;SDS011;3219;51.362;7.074;2023-04-01T07:26:04;2.15;;;1.73;;
6372;SDS011;3219;51.362;7.074;2023-04-01T07:28:40;2.03;;;1.50;;
6372;SDS011;3219;51.362;7.074;2023-04-01T07:31:10;1.40;;;1.30;;
6372;SDS011;3219;51.362;7.074;2023-04-01T07:33:46;1.98;;;1.60;;
6372;SDS011;3219;51.362;7.074;2023-04-01T07:36:21;1.30;;;1.20;;
6372;SDS011;3219;51.362;7.074;2023-04-01T07:38:57;1.90;;;1.70;;
6372;SDS011;3219;51.362;7.074;2023-04-01T07:41:32;1.50;;;1.40;;
6372;SDS011;3219;51.362;7.074;2023-04-01T07:44:10;2.22;;;1.40;;
6372;SDS011;3219;51.362;7.074;2023-04-01T07:49:37;1.92;;;1.70;;
6372;SDS011;3219;51.362;7.074;2023-04-01T07:52:12;1.50;;;1.40;;
6372;SDS011;3219;51.362;7.074;2023-04-01T07:54:46;2.28;;;1.70;;
6372;SDS011;3219;51.362;7.074;2023-04-01T07:57:20;1.80;;;1.70;;
6372;SDS011;3219;51.362;7.074;2023-04-01T07:59:56;2.03;;;1.50;;
6372;SDS011;3219;51.362;7.074;2023-04-01T08:02:28;1.20;;;1.10;;
6372;SDS011;3219;51.362;7.074;2023-04-01T08:05:09;1.30;;;1.20;;
6372;SDS011;3219;51.362;7.074;2023-04-01T08:07:45;1.67;;;1.58;;
6372;SDS011;3219;51.362;7.074;2023-04-01T08:10:19;1.55;;;1.42;;
6372;SDS011;3219;51.362;7.074;2023-04-01T08:12:53;1.73;;;1.50;;
6372;SDS011;3219;51.362;7.074;2023-04-01T08:15:28;1.65;;;1.52;;
6372;SDS011;3219;51.362;7.074;2023-04-01T08:18:06;3.47;;;1.88;;
6372;SDS011;3219;51.362;7.074;2023-04-01T08:20:40;2.45;;;2.10;;
6372;SDS011;3219;51.362;7.074;2023-04-01T08:23:13;2.30;;;2.10;;
6372;SDS011;3219;51.362;7.074;2023-04-01T08:25:44;4.80;;;2.33;;
6372;SDS011;3219;51.362;7.074;2023-04-01T08:28:17;2.92;;;2.50;;
6372;SDS011;3219;51.362;7.074;2023-04-01T08:30:49;3.53;;;2.70;;
6372;SDS011;3219;51.362;7.074;2023-04-01T08:33:21;2.63;;;2.35;;
6372;SDS011;3219;51.362;7.074;2023-04-01T08:35:53;2.60;;;2.40;;
6372;SDS011;3219;51.362;7.074;2023-04-01T08:38:23;2.42;;;2.22;;
6372;SDS011;3219;51.362;7.074;2023-04-01T08:43:29;2.60;;;2.40;;
6372;SDS011;3219;51.362;7.074;2023-04-01T08:46:27;2.97;;;2.15;;
6372;SDS011;3219;51.362;7.074;2023-04-01T08:49:17;1.90;;;1.80;;
6372;SDS011;3219;51.362;7.074;2023-04-01T08:52:07;2.25;;;2.00;;
6372;SDS011;3219;51.362;7.074;2023-04-01T08:54:55;2.35;;;2.15;;
6372;SDS011;3219;51.362;7.074;2023-04-01T08:57:41;2.65;;;1.70;;
6372;SDS011;3219;51.362;7.074;2023-04-01T09:00:20;1.83;;;1.73;;
6372;SDS011;3219;51.362;7.074;2023-04-01T09:06:03;2.92;;;2.63;;
6372;SDS011;3219;51.362;7.074;2023-04-01T09:08:48;3.33;;;2.70;;
6372;SDS011;3219;51.362;7.074;2023-04-01T09:11:30;2.80;;;2.50;;
6372;SDS011;3219;51.362;7.074;2023-04-01T09:14:13;4.70;;;2.90;;
6372;SDS011;3219;51.362;7.074;2023-04-01T09:17:01;3.30;;;3.05;;
6372;SDS011;3219;51.362;7.074;2023-04-01T09:20:03;4.20;;;3.60;;
6372;SDS011;3219;51.362;7.074;2023-04-01T09:22:48;4.38;;;4.00;;
6372;SDS011;3219;51.362;7.074;2023-04-01T09:25:30;5.15;;;4.05;;
6372;SDS011;3219;51.362;7.074;2023-04-01T09:28:12;6.28;;;4.97;;
6372;SDS011;3219;51.362;7.074;2023-04-01T09:30:52;7.05;;;5.32;;
6372;SDS011;3219;51.362;7.074;2023-04-01T09:36:38;6.78;;;6.18;;
6372;SDS011;3219;51.362;7.074;2023-04-01T09:39:21;7.93;;;7.13;;
6372;SDS011;3219;51.362;7.074;2023-04-01T09:42:06;6.68;;;5.78;;
6372;SDS011;3219;51.362;7.074;2023-04-01T09:44:57;6.65;;;6.07;;
6372;SDS011;3219;51.362;7.074;2023-04-01T09:47:40;8.32;;;7.53;;
6372;SDS011;3219;51.362;7.074;2023-04-01T09:50:23;12.40;;;9.70;;
6372;SDS011;3219;51.362;7.074;2023-04-01T09:52:59;8.30;;;7.40;;
6372;SDS011;3219;51.362;7.074;2023-04-01T10:01:12;8.25;;;6.85;;
6372;SDS011;3219;51.362;7.074;2023-04-01T10:07:21;8.70;;;7.93;;
6372;SDS011;3219;51.362;7.074;2023-04-01T10:22:37;8.95;;;7.72;;
6372;SDS011;3219;51.362;7.074;2023-04-01T10:25:28;8.02;;;7.32;;
6372;SDS011;3219;51.362;7.074;2023-04-01T10:28:18;7.90;;;7.20;;
6372;SDS011;3219;51.362;7.074;2023-04-01T10:34:22;8.05;;;7.25;;
6372;SDS011;3219;51.362;7.074;2023-04-01T10:37:08;8.63;;;7.82;;
6372;SDS011;3219;51.362;7.074;2023-04-01T10:43:23;8.43;;;7.60;;
6372;SDS011;3219;51.362;7.074;2023-04-01T10:46:25;8.25;;;7.45;;
6372;SDS011;3219;51.362;7.074;2023-04-01T11:01:45;5.90;;;5.40;;
6372;SDS011;3219;51.362;7.074;2023-04-01T11:07:48;6.05;;;5.45;;
6372;SDS011;3219;51.362;7.074;2023-04-01T11:11:06;6.15;;;5.60;;
6372;SDS011;3219;51.362;7.074;2023-04-01T11:14:17;6.35;;;5.75;;
6372;SDS011;3219;51.362;7.074;2023-04-01T11:17:13;6.32;;;5.72;;
6372;SDS011;3219;51.362;7.074;2023-04-01T11:22:48;6.45;;;5.82;;
6372;SDS011;3219;51.362;7.074;2023-04-01T11:25:29;6.75;;;5.10;;
6372;SDS011;3219;51.362;7.074;2023-04-01T11:28:44;6.07;;;5.35;;
6372;SDS011;3219;51.362;7.074;2023-04-01T11:31:29;6.20;;;5.60;;
6372;SDS011;3219;51.362;7.074;2023-04-01T11:34:05;6.00;;;5.40;;
6372;SDS011;3219;51.362;7.074;2023-04-01T11:36:51;6.30;;;5.70;;
6372;SDS011;3219;51.362;7.074;2023-04-01T11:39:29;6.47;;;5.85;;
6372;SDS011;3219;51.362;7.074;2023-04-01T11:42:07;5.53;;;5.07;;
6372;SDS011;3219;51.362;7.074;2023-04-01T11:44:46;7.90;;;6.32;;
6372;SDS011;3219;51.362;7.074;2023-04-01T11:47:26;6.45;;;5.80;;
6372;SDS011;3219;51.362;7.074;2023-04-01T11:50:16;5.68;;;5.10;;
6372;SDS011;3219;51.362;7.074;2023-04-01T11:52:54;6.03;;;4.93;;
6372;SDS011;3219;51.362;7.074;2023-04-01T11:55:35;5.63;;;5.15;;
6372;SDS011;3219;51.362;7.074;2023-04-01T11:58:15;5.80;;;5.32;;
6372;SDS011;3219;51.362;7.074;2023-04-01T12:04:15;6.47;;;5.88;;
6372;SDS011;3219;51.362;7.074;2023-04-01T12:07:11;6.22;;;5.72;;
6372;SDS011;3219;51.362;7.074;2023-04-01T12:09:47;6.07;;;5.47;;
6372;SDS011;3219;51.362;7.074;2023-04-01T12:12:23;6.97;;;6.38;;
6372;SDS011;3219;51.362;7.074;2023-04-01T12:15:03;5.72;;;5.10;;
6372;SDS011;3219;51.362;7.074;2023-04-01T12:17:43;5.78;;;4.85;;
6372;SDS011;3219;51.362;7.074;2023-04-01T12:20:28;4.63;;;4.20;;
6372;SDS011;3219;51.362;7.074;2023-04-01T12:23:09;5.43;;;4.90;;
6372;SDS011;3219;51.362;7.074;2023-04-01T12:25:58;4.72;;;4.32;;
6372;SDS011;3219;51.362;7.074;2023-04-01T12:28:45;4.90;;;4.22;;
6372;SDS011;3219;51.362;7.074;2023-04-01T12:31:24;4.68;;;4.28;;
6372;SDS011;3219;51.362;7.074;2023-04-01T12:34:05;4.60;;;4.20;;
6372;SDS011;3219;51.362;7.074;2023-04-01T12:37:05;5.00;;;4.50;;
6372;SDS011;3219;51.362;7.074;2023-04-01T12:39:41;5.10;;;4.10;;
6372;SDS011;3219;51.362;7.074;2023-04-01T12:42:21;4.40;;;4.05;;
6372;SDS011;3219;51.362;7.074;2023-04-01T12:45:12;4.93;;;4.53;;
6372;SDS011;3219;51.362;7.074;2023-04-01T12:48:03;5.65;;;5.07;;
6372;SDS011;3219;51.362;7.074;2023-04-01T12:50:59;6.97;;;6.22;;
6372;SDS011;3219;51.362;7.074;2023-04-01T12:53:46;6.85;;;6.25;;
6372;SDS011;3219;51.362;7.074;2023-04-01T12:56:30;8.43;;;7.53;;
6372;SDS011;3219;51.362;7.074;2023-04-01T12:59:23;7.95;;;7.18;;
6372;SDS011;3219;51.362;7.074;2023-04-01T13:02:06;9.32;;;8.43;;
6372;SDS011;3219;51.362;7.074;2023-04-01T13:07:57;8.80;;;8.00;;
6372;SDS011;3219;51.362;7.074;2023-04-01T13:10:35;9.10;;;8.27;;
6372;SDS011;3219;51.362;7.074;2023-04-01T13:13:23;9.32;;;8.45;;
6372;SDS011;3219;51.362;7.074;2023-04-01T13:16:05;8.95;;;8.10;;
6372;SDS011;3219;51.362;7.074;2023-04-01T13:18:39;9.02;;;8.13;;
6372;SDS011;3219;51.362;7.074;2023-04-01T13:21:19;8.73;;;7.93;;
6372;SDS011;3219;51.362;7.074;2023-04-01T13:23:54;9.52;;;8.60;;
6372;SDS011;3219;51.362;7.074;2023-04-01T13:26:29;8.85;;;8.05;;
6372;SDS011;3219;51.362;7.074;2023-04-01T13:29:04;9.45;;;8.27;;
6372;SDS011;3219;51.362;7.074;2023-04-01T13:31:44;7.57;;;6.88;;
6372;SDS011;3219;51.362;7.074;2023-04-01T13:34:24;7.93;;;7.00;;
6372;SDS011;3219;51.362;7.074;2023-04-01T13:37:04;9.68;;;7.00;;
6372;SDS011;3219;51.362;7.074;2023-04-01T13:39:43;9.48;;;7.80;;
6372;SDS011;3219;51.362;7.074;2023-04-01T13:42:23;6.88;;;6.18;;
6372;SDS011;3219;51.362;7.074;2023-04-01T13:44:55;6.18;;;5.57;;
6372;SDS011;3219;51.362;7.074;2023-04-01T13:47:48;5.93;;;5.43;;
6372;SDS011;3219;51.362;7.074;2023-04-01T13:50:39;6.88;;;6.18;;
6372;SDS011;3219;51.362;7.074;2023-04-01T13:53:29;6.85;;;6.15;;
6372;SDS011;3219;51.362;7.074;2023-04-01T13:56:08;6.97;;;6.03;;
6372;SDS011;3219;51.362;7.074;2023-04-01T13:58:56;6.55;;;5.95;;
6372;SDS011;3219;51.362;7.074;2023-04-01T14:01:32;6.10;;;5.55;;
6372;SDS011;3219;51.362;7.074;2023-04-01T14:04:19;6.93;;;5.57;;
6372;SDS011;3219;51.362;7.074;2023-04-01T14:07:07;5.90;;;5.35;;
6372;SDS011;3219;51.362;7.074;2023-04-01T14:09:44;5.95;;;5.45;;
6372;SDS011;3219;51.362;7.074;2023-04-01T14:12:23;6.25;;;5.65;;
6372;SDS011;3219;51.362;7.074;2023-04-01T14:15:05;6.57;;;5.88;;
6372;SDS011;3219;51.362;7.074;2023-04-01T14:17:48;7.00;;;6.25;;
6372;SDS011;3219;51.362;7.074;2023-04-01T14:20:27;6.78;;;6.07;;
6372;SDS011;3219;51.362;7.074;2023-04-01T14:23:07;7.60;;;5.25;;
6372;SDS011;3219;51.362;7.074;2023-04-01T14:25:51;5.93;;;5.32;;
6372;SDS011;3219;51.362;7.074;2023-04-01T14:28:30;5.70;;;5.20;;
6372;SDS011;3219;51.362;7.074;2023-04-01T14:31:17;6.32;;;5.72;;
6372;SDS011;3219;51.362;7.074;2023-04-01T14:33:56;5.63;;;5.13;;
6372;SDS011;3219;51.362;7.074;2023-04-01T14:36:38;5.80;;;5.28;;
6372;SDS011;3219;51.362;7.074;2023-04-01T14:42:15;5.50;;;5.03;;
6372;SDS011;3219;51.362;7.074;2023-04-01T14:44:57;5.90;;;5.40;;
6372;SDS011;3219;51.362;7.074;2023-04-01T14:47:44;6.25;;;5.65;;
6372;SDS011;3219;51.362;7.074;2023-04-01T14:50:15;5.85;;;5.35;;
6372;SDS011;3219;51.362;7.074;2023-04-01T14:52:46;6.00;;;5.18;;
6372;SDS011;3219;51.362;7.074;2023-04-01T14:55:26;6.78;;;5.55;;
6372;SDS011;3219;51.362;7.074;2023-04-01T14:57:58;6.00;;;5.45;;
6372;SDS011;3219;51.362;7.074;2023-04-01T15:00:26;8.30;;;5.95;;
6372;SDS011;3219;51.362;7.074;2023-04-01T15:02:56;6.00;;;5.50;;
6372;SDS011;3219;51.362;7.074;2023-04-01T15:05:32;5.85;;;5.35;;
6372;SDS011;3219;51.362;7.074;2023-04-01T15:08:13;6.68;;;6.07;;
6372;SDS011;3219;51.362;7.074;2023-04-01T15:10:55;5.82;;;5.25;;
6372;SDS011;3219;51.362;7.074;2023-04-01T15:13:46;6.65;;;6.05;;
6372;SDS011;3219;51.362;7.074;2023-04-01T15:16:50;6.00;;;5.45;;
6372;SDS011;3219;51.362;7.074;2023-04-01T15:19:31;6.53;;;5.93;;
6372;SDS011;3219;51.362;7.074;2023-04-01T15:22:12;6.65;;;6.05;;
6372;SDS011;3219;51.362;7.074;2023-04-01T15:25:22;5.78;;;4.70;;
6372;SDS011;3219;51.362;7.074;2023-04-01T15:28:01;6.15;;;5.55;;
6372;SDS011;3219;51.362;7.074;2023-04-01T15:30:37;6.07;;;5.47;;
6372;SDS011;3219;51.362;7.074;2023-04-01T15:33:21;5.88;;;5.38;;
6372;SDS011;3219;51.362;7.074;2023-04-01T15:36:04;5.47;;;4.97;;
6372;SDS011;3219;51.362;7.074;2023-04-01T15:38:39;5.43;;;5.03;;
6372;SDS011;3219;51.362;7.074;2023-04-01T15:41:15;5.03;;;4.50;;
6372;SDS011;3219;51.362;7.074;2023-04-01T15:43:43;5.10;;;4.50;;
6372;SDS011;3219;51.362;7.074;2023-04-01T15:46:17;4.68;;;4.28;;
6372;SDS011;3219;51.362;7.074;2023-04-01T15:49:19;4.97;;;4.50;;
6372;SDS011;3219;51.362;7.074;2023-04-01T15:51:56;4.78;;;4.28;;
6372;SDS011;3219;51.362;7.074;2023-04-01T15:54:38;4.90;;;4.50;;
6372;SDS011;3219;51.362;7.074;2023-04-01T15:57:28;5.15;;;4.72;;
6372;SDS011;3219;51.362;7.074;2023-04-01T16:00:06;4.32;;;3.92;;
6372;SDS011;3219;51.362;7.074;2023-04-01T16:02:40;4.30;;;4.00;;
6372;SDS011;3219;51.362;7.074;2023-04-01T16:05:20;4.35;;;3.95;;
6372;SDS011;3219;51.362;7.074;2023-04-01T16:07:57;3.72;;;3.42;;
6372;SDS011;3219;51.362;7.074;2023-04-01T16:13:40;3.75;;;3.45;;
6372;SDS011;3219;51.362;7.074;2023-04-01T16:16:18;3.35;;;2.90;;
6372;SDS011;3219;51.362;7.074;2023-04-01T16:18:58;3.00;;;2.70;;
6372;SDS011;3219;51.362;7.074;2023-04-01T16:21:36;3.30;;;2.92;;
6372;SDS011;3219;51.362;7.074;2023-04-01T16:24:12;2.95;;;2.75;;
6372;SDS011;3219;51.362;7.074;2023-04-01T16:26:44;2.85;;;2.65;;
6372;SDS011;3219;51.362;7.074;2023-04-01T16:29:19;3.55;;;3.25;;
6372;SDS011;3219;51.362;7.074;2023-04-01T16:31:51;3.40;;;3.10;;
6372;SDS011;3219;51.362;7.074;2023-04-01T16:34:27;3.58;;;3.28;;
6372;SDS011;3219;51.362;7.074;2023-04-01T16:37:03;3.92;;;3.63;;
6372;SDS011;3219;51.362;7.074;2023-04-01T16:39:35;5.00;;;3.92;;
6372;SDS011;3219;51.362;7.074;2023-04-01T16:42:20;4.70;;;4.30;;
6372;SDS011;3219;51.362;7.074;2023-04-01T16:44:53;5.68;;;4.90;;
6372;SDS011;3219;51.362;7.074;2023-04-01T16:47:27;7.15;;;6.55;;
6372;SDS011;3219;51.362;7.074;2023-04-01T16:49:59;6.72;;;6.10;;
6372;SDS011;3219;51.362;7.074;2023-04-01T16:52:45;7.00;;;6.30;;
6372;SDS011;3219;51.362;7.074;2023-04-01T16:55:32;7.25;;;6.55;;
6372;SDS011;3219;51.362;7.074;2023-04-01T16:58:01;7.50;;;6.80;;
6372;SDS011;3219;51.362;7.074;2023-04-01T17:00:29;8.95;;;7.40;;
6372;SDS011;3219;51.362;7.074;2023-04-01T17:03:04;8.02;;;7.22;;
6372;SDS011;3219;51.362;7.074;2023-04-01T17:05:44;7.53;;;6.93;;
6372;SDS011;3219;51.362;7.074;2023-04-01T17:08:29;7.22;;;6.53;;
6372;SDS011;3219;51.362;7.074;2023-04-01T17:11:09;7.38;;;6.78;;
6372;SDS011;3219;51.362;7.074;2023-04-01T17:13:46;7.85;;;7.05;;
6372;SDS011;3219;51.362;7.074;2023-04-01T17:16:26;6.68;;;6.10;;
6372;SDS011;3219;51.362;7.074;2023-04-01T17:19:05;7.03;;;6.43;;
6372;SDS011;3219;51.362;7.074;2023-04-01T17:21:52;7.18;;;6.47;;
6372;SDS011;3219;51.362;7.074;2023-04-01T17:24:29;6.75;;;6.05;;
6372;SDS011;3219;51.362;7.074;2023-04-01T17:27:23;8.10;;;7.30;;
6372;SDS011;3219;51.362;7.074;2023-04-01T17:30:03;8.02;;;7.25;;